createdAt,value
2023-06-18T00:01:36.511Z,22.56
2023-06-18T00:03:38.612Z,22.48
2023-06-18T00:05:41.008Z,22.48
2023-06-18T00:07:43.173Z,22.33
2023-06-18T00:09:45.439Z,22.31
2023-06-18T00:11:47.821Z,22.36
2023-06-18T00:13:50.070Z,22.26
2023-06-18T00:15:52.646Z,22.29
2023-06-18T00:17:55.108Z,22.21
2023-06-18T00:19:57.336Z,22.19
2023-06-18T00:22:00.671Z,22.01
2023-06-18T00:24:03.385Z,21.89
2023-06-18T00:26:06.242Z,21.65
2023-06-18T00:28:08.457Z,21.56
2023-06-18T00:30:11.255Z,21.47
2023-06-18T00:32:13.378Z,21.60
2023-06-18T00:34:16.355Z,21.58
2023-06-18T00:36:21.067Z,21.63
2023-06-18T00:38:23.107Z,21.70
2023-06-18T00:40:25.497Z,21.82
2023-06-18T00:42:29.996Z,21.79
2023-06-18T00:44:32.223Z,21.55
2023-06-18T00:46:36.816Z,21.71
2023-06-18T00:48:39.126Z,21.77
2023-06-18T00:50:42.238Z,21.72
2023-06-18T00:52:49.327Z,21.68
2023-06-18T00:54:51.997Z,21.88
2023-06-18T00:56:54.344Z,21.67
2023-06-18T00:58:58.750Z,21.73
2023-06-18T01:01:01.145Z,21.80
2023-06-18T01:03:06.861Z,21.80
2023-06-18T01:05:10.767Z,21.89
2023-06-18T01:07:15.773Z,21.72
2023-06-18T01:09:24.971Z,21.77
2023-06-18T01:11:30.634Z,21.84
2023-06-18T01:13:37.887Z,21.84
2023-06-18T01:15:40.445Z,21.77
2023-06-18T01:17:47.902Z,21.88
2023-06-18T01:20:11.569Z,21.98
2023-06-18T01:22:28.401Z,22.06
2023-06-18T01:24:33.842Z,22.07
2023-06-18T01:26:36.971Z,22.13
2023-06-18T01:28:41.557Z,22.03
2023-06-18T01:30:43.936Z,22.09
2023-06-18T01:32:46.356Z,22.16
2023-06-18T01:34:49.174Z,22.09
2023-06-18T01:37:06.773Z,22.03
2023-06-18T01:39:26.371Z,22.23
2023-06-18T01:41:32.838Z,22.27
2023-06-18T01:43:43.393Z,22.22
2023-06-18T01:45:47.185Z,22.13
2023-06-18T01:47:52.064Z,22.15
2023-06-18T01:49:56.946Z,22.11
2023-06-18T01:52:03.917Z,22.23
2023-06-18T01:54:08.046Z,22.00
2023-06-18T01:56:10.767Z,21.96
2023-06-18T01:58:14.969Z,22.03
2023-06-18T02:00:17.108Z,22.04
2023-06-18T02:02:19.271Z,21.98
2023-06-18T02:04:21.590Z,22.04
2023-06-18T02:06:23.630Z,21.93
2023-06-18T02:08:27.546Z,22.02
2023-06-18T02:10:29.500Z,21.94
2023-06-18T02:12:31.458Z,22.00
2023-06-18T02:14:33.593Z,21.99
2023-06-18T02:16:35.768Z,21.91
2023-06-18T02:18:37.804Z,21.84
2023-06-18T02:20:41.177Z,21.89
2023-06-18T02:22:43.406Z,21.87
2023-06-18T02:24:45.439Z,21.88
2023-06-18T02:26:47.498Z,21.86
2023-06-18T02:28:49.595Z,21.86
2023-06-18T02:30:51.550Z,21.80
2023-06-18T02:32:54.288Z,21.75
2023-06-18T02:34:56.772Z,21.72
2023-06-18T02:36:58.710Z,21.69
2023-06-18T02:39:00.760Z,21.45
2023-06-18T02:41:02.861Z,21.50
2023-06-18T02:43:07.231Z,21.44
2023-06-18T02:45:10.001Z,21.33
2023-06-18T02:47:12.045Z,21.40
2023-06-18T02:49:14.278Z,21.48
2023-06-18T02:51:16.493Z,21.42
2023-06-18T02:53:18.614Z,21.44
2023-06-18T02:55:21.473Z,21.50
2023-06-18T02:57:23.763Z,21.55
2023-06-18T02:59:26.185Z,21.61
2023-06-18T03:01:29.698Z,21.64
2023-06-18T03:03:33.205Z,21.66
2023-06-18T03:05:35.277Z,21.64
2023-06-18T03:07:38.777Z,21.63
2023-06-18T03:09:40.942Z,21.47
2023-06-18T03:11:43.090Z,21.49
2023-06-18T03:13:45.380Z,21.59
2023-06-18T03:15:47.590Z,21.49
2023-06-18T03:17:49.665Z,21.42
2023-06-18T03:19:51.890Z,21.37
2023-06-18T03:21:54.448Z,21.46
2023-06-18T03:23:56.687Z,21.57
2023-06-18T03:25:58.927Z,21.42
2023-06-18T03:28:00.998Z,21.46
2023-06-18T03:30:05.675Z,21.50
2023-06-18T03:32:08.493Z,21.33
2023-06-18T03:34:10.736Z,21.28
2023-06-18T03:36:16.989Z,21.27
2023-06-18T03:38:19.266Z,21.23
2023-06-18T03:40:22.343Z,21.23
2023-06-18T03:42:25.527Z,21.21
2023-06-18T03:44:27.550Z,21.05
2023-06-18T03:46:29.808Z,21.11
2023-06-18T03:48:32.418Z,20.90
2023-06-18T03:50:34.521Z,20.64
2023-06-18T03:52:36.548Z,20.76
2023-06-18T03:54:39.831Z,20.79
2023-06-18T03:56:42.524Z,20.78
2023-06-18T03:58:45.323Z,20.82
2023-06-18T04:00:47.809Z,20.97
2023-06-18T04:02:49.956Z,20.90
2023-06-18T04:04:52.209Z,20.89
2023-06-18T04:06:54.438Z,20.86
2023-06-18T04:08:56.612Z,20.98
2023-06-18T04:10:59.576Z,21.03
2023-06-18T04:13:01.979Z,21.02
2023-06-18T04:15:04.792Z,21.00
2023-06-18T04:17:07.226Z,21.06
2023-06-18T04:19:09.327Z,21.02
2023-06-18T04:21:11.389Z,21.08
2023-06-18T04:23:14.432Z,21.13
2023-06-18T04:25:16.898Z,21.11
2023-06-18T04:27:18.990Z,21.09
2023-06-18T04:29:21.112Z,21.17
2023-06-18T04:31:23.253Z,21.19
2023-06-18T04:33:26.010Z,21.13
2023-06-18T04:35:27.952Z,20.97
2023-06-18T04:37:31.339Z,21.06
2023-06-18T04:39:33.319Z,21.16
2023-06-18T04:41:35.309Z,21.19
2023-06-18T04:43:37.301Z,21.20
2023-06-18T04:45:39.293Z,21.20
2023-06-18T04:47:42.009Z,21.19
2023-06-18T04:49:45.144Z,21.25
2023-06-18T04:51:47.145Z,21.35
2023-06-18T04:53:49.058Z,21.39
2023-06-18T04:55:51.040Z,21.44
2023-06-18T04:57:53.152Z,21.33
2023-06-18T04:59:55.859Z,21.49
2023-06-18T05:01:57.766Z,21.48
2023-06-18T05:03:59.730Z,21.51
2023-06-18T05:06:01.832Z,21.48
2023-06-18T05:08:03.940Z,21.62
2023-06-18T05:10:06.986Z,21.59
2023-06-18T05:12:09.940Z,21.60
2023-06-18T05:14:12.038Z,21.59
2023-06-18T05:16:14.301Z,21.44
2023-06-18T05:18:16.474Z,21.44
2023-06-18T05:20:18.822Z,21.47
2023-06-18T05:22:21.042Z,21.51
2023-06-18T05:24:23.106Z,21.54
2023-06-18T05:26:25.903Z,21.51
2023-06-18T05:28:27.973Z,21.47
2023-06-18T05:30:30.134Z,21.40
2023-06-18T05:32:32.239Z,21.42
2023-06-18T05:34:34.609Z,21.43
2023-06-18T05:36:36.693Z,21.26
2023-06-18T05:38:38.883Z,21.41
2023-06-18T05:40:41.006Z,21.40
2023-06-18T05:42:43.597Z,21.42
2023-06-18T05:44:46.406Z,21.42
2023-06-18T05:46:48.600Z,21.46
2023-06-18T05:48:50.777Z,21.26
2023-06-18T05:50:53.176Z,21.42
2023-06-18T05:52:55.406Z,21.41
2023-06-18T05:54:57.685Z,21.33
2023-06-18T05:57:01.807Z,21.36
2023-06-18T05:59:03.875Z,21.42
2023-06-18T06:01:05.992Z,21.30
2023-06-18T06:03:08.187Z,21.41
2023-06-18T06:05:10.559Z,21.38
2023-06-18T06:07:12.606Z,21.33
2023-06-18T06:09:14.815Z,21.39
2023-06-18T06:11:17.157Z,21.25
2023-06-18T06:13:19.273Z,21.27
2023-06-18T06:15:21.415Z,21.30
2023-06-18T06:17:23.493Z,21.36
2023-06-18T06:19:26.819Z,21.55
2023-06-18T06:21:29.077Z,21.56
2023-06-18T06:23:33.147Z,21.53
2023-06-18T06:25:35.444Z,21.53
2023-06-18T06:27:39.396Z,21.56
2023-06-18T06:29:41.475Z,21.50
2023-06-18T06:31:43.593Z,21.59
2023-06-18T06:33:46.157Z,21.60
2023-06-18T06:35:48.278Z,21.67
2023-06-18T06:37:50.422Z,21.72
2023-06-18T06:39:52.568Z,21.79
2023-06-18T06:41:55.021Z,21.96
2023-06-18T06:43:57.121Z,22.05
2023-06-18T06:45:59.442Z,22.07
2023-06-18T06:48:01.569Z,22.06
2023-06-18T06:50:03.947Z,22.20
2023-06-18T06:52:06.573Z,22.27
2023-06-18T06:54:10.608Z,22.32
2023-06-18T06:56:13.650Z,22.42
2023-06-18T06:58:16.307Z,22.42
2023-06-18T07:00:18.788Z,22.47
2023-06-18T07:02:21.086Z,22.59
2023-06-18T07:04:23.244Z,22.67
2023-06-18T07:06:25.423Z,22.33
2023-06-18T07:08:27.636Z,22.35
2023-06-18T07:10:30.313Z,22.33
2023-06-18T07:12:33.093Z,22.35
2023-06-18T07:14:35.403Z,22.51
2023-06-18T07:16:37.617Z,22.44
2023-06-18T07:18:39.856Z,22.46
2023-06-18T07:20:42.060Z,22.61
2023-06-18T07:22:44.356Z,22.55
2023-06-18T07:24:46.525Z,22.67
2023-06-18T07:26:49.025Z,22.68
2023-06-18T07:28:51.219Z,22.63
2023-06-18T07:30:53.497Z,22.48
2023-06-18T07:32:55.811Z,22.70
2023-06-18T07:34:57.954Z,22.65
2023-06-18T07:37:00.244Z,22.58
2023-06-18T07:39:02.808Z,22.63
2023-06-18T07:41:04.943Z,22.75
2023-06-18T07:43:07.276Z,22.77
2023-06-18T07:45:09.866Z,22.85
2023-06-18T07:47:11.903Z,22.71
2023-06-18T07:49:14.297Z,22.70
2023-06-18T07:51:16.568Z,22.65
2023-06-18T07:53:18.726Z,22.77
2023-06-18T07:55:21.199Z,22.83
2023-06-18T07:57:23.418Z,22.76
2023-06-18T07:59:27.085Z,22.79
2023-06-18T08:01:29.413Z,22.75
2023-06-18T08:03:31.616Z,22.97
2023-06-18T08:05:34.127Z,23.01
2023-06-18T08:07:36.906Z,23.04
2023-06-18T08:09:39.101Z,23.15
2023-06-18T08:11:41.392Z,23.20
2023-06-18T08:13:43.576Z,23.06
2023-06-18T08:15:45.790Z,23.03
2023-06-18T08:17:48.097Z,23.23
2023-06-18T08:19:51.089Z,23.13
2023-06-18T08:21:54.466Z,23.20
2023-06-18T08:23:57.650Z,23.27
2023-06-18T08:25:59.746Z,23.33
2023-06-18T08:28:01.972Z,23.44
2023-06-18T08:30:06.416Z,23.58
2023-06-18T08:32:09.318Z,23.54
2023-06-18T08:34:11.566Z,23.35
2023-06-18T08:36:13.827Z,23.59
2023-06-18T08:38:16.033Z,23.56
2023-06-18T08:40:25.332Z,23.62
2023-06-18T08:42:28.582Z,23.56
2023-06-18T08:44:31.852Z,23.73
2023-06-18T08:46:36.894Z,23.92
2023-06-18T08:48:46.617Z,23.96
2023-06-18T08:50:54.872Z,24.04
2023-06-18T08:53:06.306Z,24.11
2023-06-18T08:55:10.525Z,24.16
2023-06-18T08:57:17.778Z,24.33
2023-06-18T08:59:20.639Z,24.17
2023-06-18T09:01:24.715Z,24.22
2023-06-18T09:03:27.095Z,24.26
2023-06-18T09:05:29.494Z,24.14
2023-06-18T09:07:31.970Z,24.22
2023-06-18T09:09:34.226Z,24.51
2023-06-18T09:11:37.646Z,24.48
2023-06-18T09:13:43.007Z,24.43
2023-06-18T09:15:45.323Z,24.45
2023-06-18T09:17:52.724Z,24.62
2023-06-18T09:19:56.284Z,24.69
2023-06-18T09:22:13.308Z,24.74
2023-06-18T09:24:19.801Z,24.77
2023-06-18T09:26:22.177Z,24.95
2023-06-18T09:28:26.014Z,24.88
2023-06-18T09:30:28.645Z,25.13
2023-06-18T09:32:30.753Z,25.18
2023-06-18T09:34:33.086Z,25.32
2023-06-18T09:36:37.927Z,25.46
2023-06-18T09:38:42.923Z,25.57
2023-06-18T09:40:45.014Z,25.61
2023-06-18T09:42:47.928Z,25.78
2023-06-18T09:44:50.797Z,25.64
2023-06-18T09:46:58.113Z,25.90
2023-06-18T09:49:02.212Z,25.84
2023-06-18T09:51:06.149Z,25.82
2023-06-18T09:53:19.344Z,25.88
2023-06-18T09:55:32.695Z,26.09
2023-06-18T09:57:50.787Z,26.07
2023-06-18T10:00:11.586Z,26.13
2023-06-18T10:02:25.318Z,26.19
2023-06-18T10:04:27.777Z,26.35
2023-06-18T10:06:31.717Z,26.52
2023-06-18T10:08:35.346Z,26.58
2023-06-18T10:10:41.868Z,26.69
2023-06-18T10:12:49.483Z,26.68
2023-06-18T10:14:55.425Z,26.80
2023-06-18T10:17:13.086Z,26.66
2023-06-18T10:19:24.590Z,26.84
2023-06-18T10:21:29.964Z,26.86
2023-06-18T10:23:34.768Z,26.93
2023-06-18T10:25:38.135Z,27.21
2023-06-18T10:27:40.559Z,27.46
2023-06-18T10:29:43.719Z,27.48
2023-06-18T10:31:47.082Z,27.48
2023-06-18T10:33:49.659Z,27.63
2023-06-18T10:35:52.586Z,27.52
2023-06-18T10:37:55.132Z,27.69
2023-06-18T10:39:57.646Z,27.79
2023-06-18T10:42:13.028Z,27.69
2023-06-18T10:44:15.264Z,27.65
2023-06-18T10:46:18.111Z,27.78
2023-06-18T10:48:21.415Z,27.68
2023-06-18T10:50:24.990Z,27.93
2023-06-18T10:52:30.315Z,28.12
2023-06-18T10:54:32.803Z,27.91
2023-06-18T10:56:37.907Z,28.01
2023-06-18T10:58:42.283Z,28.01
2023-06-18T11:00:45.551Z,28.00
2023-06-18T11:02:51.655Z,27.91
2023-06-18T11:04:54.825Z,27.96
2023-06-18T11:07:16.015Z,28.03
2023-06-18T11:09:18.143Z,28.10
2023-06-18T11:11:25.117Z,28.17
2023-06-18T11:13:35.685Z,28.25
2023-06-18T11:15:53.538Z,28.18
2023-06-18T11:17:56.917Z,28.37
2023-06-18T11:20:00.127Z,28.26
2023-06-18T11:22:02.295Z,28.28
2023-06-18T11:24:05.952Z,28.31
2023-06-18T11:26:08.237Z,28.42
2023-06-18T11:28:11.491Z,28.17
2023-06-18T11:30:15.250Z,28.17
2023-06-18T11:32:18.147Z,28.07
2023-06-18T11:34:20.251Z,28.11
2023-06-18T11:36:22.601Z,27.87
2023-06-18T11:38:26.714Z,27.99
2023-06-18T11:40:28.821Z,28.17
2023-06-18T11:42:31.615Z,28.10
2023-06-18T11:44:33.750Z,28.22
2023-06-18T11:46:38.272Z,28.21
2023-06-18T11:48:40.489Z,28.16
2023-06-18T11:50:42.808Z,28.35
2023-06-18T11:52:46.501Z,28.34
2023-06-18T11:54:50.044Z,28.52
2023-06-18T11:56:55.316Z,28.59
2023-06-18T11:58:59.165Z,28.46
2023-06-18T12:01:01.339Z,28.74
2023-06-18T12:03:03.880Z,28.84
2023-06-18T12:05:07.068Z,28.67
2023-06-18T12:07:09.641Z,28.68
2023-06-18T12:09:12.389Z,28.56
2023-06-18T12:11:25.359Z,28.44
2023-06-18T12:13:39.249Z,28.35
2023-06-18T12:15:51.984Z,28.27
2023-06-18T12:17:57.139Z,28.31
2023-06-18T12:20:11.226Z,28.23
2023-06-18T12:22:14.634Z,28.15
2023-06-18T12:24:17.063Z,28.10
2023-06-18T12:26:19.612Z,27.97
2023-06-18T12:28:25.676Z,27.87
2023-06-18T12:30:30.272Z,27.88
2023-06-18T12:32:32.370Z,27.69
2023-06-18T12:34:35.847Z,27.74
2023-06-18T12:36:37.956Z,27.58
2023-06-18T12:38:41.474Z,27.52
2023-06-18T12:40:51.598Z,27.26
2023-06-18T12:42:54.420Z,27.27
2023-06-18T12:44:57.928Z,27.24
2023-06-18T12:47:00.818Z,27.28
2023-06-18T12:49:05.257Z,27.22
2023-06-18T12:51:08.549Z,27.25
2023-06-18T12:53:18.113Z,27.26
2023-06-18T12:55:23.043Z,27.20
2023-06-18T12:57:28.934Z,27.18
2023-06-18T12:59:31.143Z,27.03
2023-06-18T13:01:33.496Z,27.04
2023-06-18T13:03:36.820Z,27.08
2023-06-18T13:05:39.057Z,27.29
2023-06-18T13:07:53.934Z,27.10
2023-06-18T13:09:56.215Z,27.09
2023-06-18T13:11:58.456Z,26.86
2023-06-18T13:14:01.885Z,26.76
2023-06-18T13:16:04.382Z,26.85
2023-06-18T13:18:07.445Z,26.75
2023-06-18T13:20:11.097Z,26.64
2023-06-18T13:22:14.111Z,26.66
2023-06-18T13:24:16.372Z,26.53
2023-06-18T13:26:20.096Z,26.56
2023-06-18T13:28:22.616Z,26.58
2023-06-18T13:30:25.320Z,26.33
2023-06-18T13:32:27.748Z,26.18
2023-06-18T13:34:29.885Z,26.26
2023-06-18T13:36:32.698Z,26.17
2023-06-18T13:38:35.304Z,26.26
2023-06-18T13:40:37.509Z,26.31
2023-06-18T13:42:39.797Z,26.10
2023-06-18T13:44:42.925Z,26.16
2023-06-18T13:46:45.232Z,26.12
2023-06-18T13:48:47.438Z,26.24
2023-06-18T13:50:49.602Z,26.00
2023-06-18T13:52:51.884Z,25.98
2023-06-18T13:54:53.988Z,25.82
2023-06-18T13:56:56.595Z,25.74
2023-06-18T13:58:58.972Z,25.66
2023-06-18T14:01:01.168Z,25.51
2023-06-18T14:03:04.390Z,25.86
2023-06-18T14:05:08.048Z,25.63
2023-06-18T14:07:11.204Z,25.68
2023-06-18T14:09:16.866Z,25.46
2023-06-18T14:11:20.893Z,25.63
2023-06-18T14:13:24.893Z,25.82
2023-06-18T14:15:27.988Z,25.74
2023-06-18T14:17:30.189Z,25.55
2023-06-18T14:19:32.380Z,25.58
2023-06-18T14:21:34.537Z,25.71
2023-06-18T14:23:37.342Z,25.72
2023-06-18T14:25:40.526Z,25.68
2023-06-18T14:27:42.955Z,25.62
2023-06-18T14:29:45.186Z,25.39
2023-06-18T14:31:47.385Z,25.60
2023-06-18T14:33:55.940Z,25.66
2023-06-18T14:36:06.446Z,25.39
2023-06-18T14:38:08.707Z,25.41
2023-06-18T14:40:11.825Z,25.50
2023-06-18T14:42:13.919Z,25.24
2023-06-18T14:44:16.593Z,25.50
2023-06-18T14:46:19.936Z,25.45
2023-06-18T14:48:22.135Z,25.34
2023-06-18T14:50:24.388Z,25.33
2023-06-18T14:52:26.574Z,24.98
2023-06-18T14:54:28.857Z,25.08
2023-06-18T14:56:32.144Z,25.10
2023-06-18T14:58:34.472Z,25.25
2023-06-18T15:00:37.330Z,24.97
2023-06-18T15:02:39.866Z,24.88
2023-06-18T15:04:42.649Z,25.07
2023-06-18T15:06:47.037Z,25.25
2023-06-18T15:08:49.775Z,25.02
2023-06-18T15:10:52.226Z,24.82
2023-06-18T15:12:54.785Z,24.85
2023-06-18T15:14:57.006Z,24.86
2023-06-18T15:16:59.203Z,24.77
2023-06-18T15:19:01.410Z,24.86
2023-06-18T15:21:03.732Z,24.78
2023-06-18T15:23:06.947Z,24.73
2023-06-18T15:25:09.679Z,24.69
2023-06-18T15:27:13.187Z,24.40
2023-06-18T15:29:16.925Z,24.45
2023-06-18T15:31:20.698Z,24.46
2023-06-18T15:33:24.944Z,24.01
2023-06-18T15:35:27.417Z,24.25
2023-06-18T15:37:29.565Z,24.24
2023-06-18T15:39:31.683Z,23.99
2023-06-18T15:41:34.266Z,23.96
2023-06-18T15:43:36.505Z,23.93
2023-06-18T15:45:38.810Z,23.93
2023-06-18T15:47:41.233Z,23.67
2023-06-18T15:49:43.407Z,23.76
2023-06-18T15:51:45.833Z,23.80
2023-06-18T15:53:47.986Z,23.63
2023-06-18T15:55:50.638Z,23.44
2023-06-18T15:57:52.948Z,23.67
2023-06-18T15:59:55.118Z,23.60
2023-06-18T16:01:57.415Z,23.57
2023-06-18T16:03:59.766Z,23.48
2023-06-18T16:06:02.004Z,23.52
2023-06-18T16:08:04.617Z,23.50
2023-06-18T16:10:07.957Z,23.61
2023-06-18T16:12:10.484Z,23.67
2023-06-18T16:14:12.817Z,23.67
2023-06-18T16:16:14.969Z,23.73
2023-06-18T16:18:19.295Z,23.78
2023-06-18T16:20:22.334Z,23.71
2023-06-18T16:22:24.507Z,23.64
2023-06-18T16:24:27.172Z,23.60
2023-06-18T16:26:29.797Z,23.19
2023-06-18T16:28:32.848Z,23.24
2023-06-18T16:30:35.057Z,23.25
2023-06-18T16:32:37.359Z,23.32
2023-06-18T16:34:39.956Z,23.19
2023-06-18T16:36:44.964Z,23.20
2023-06-18T16:38:47.400Z,23.25
2023-06-18T16:40:49.813Z,23.16
2023-06-18T16:42:52.845Z,23.04
2023-06-18T16:44:55.128Z,23.06
2023-06-18T16:46:58.203Z,22.99
2023-06-18T16:49:00.403Z,22.93
2023-06-18T16:51:03.073Z,22.96
2023-06-18T16:53:05.685Z,22.96
2023-06-18T16:55:08.823Z,22.71
2023-06-18T16:57:10.957Z,22.67
2023-06-18T16:59:13.190Z,22.47
2023-06-18T17:01:15.567Z,22.52
2023-06-18T17:03:17.942Z,22.43
2023-06-18T17:05:20.411Z,22.50
2023-06-18T17:07:22.755Z,22.61
2023-06-18T17:09:25.090Z,22.49
2023-06-18T17:11:28.783Z,22.59
2023-06-18T17:13:33.432Z,22.46
2023-06-18T17:15:35.717Z,22.61
2023-06-18T17:17:38.065Z,22.61
2023-06-18T17:19:40.300Z,22.55
2023-06-18T17:21:42.694Z,22.42
2023-06-18T17:23:44.885Z,22.52
2023-06-18T17:25:47.124Z,22.45
2023-06-18T17:27:50.683Z,22.33
2023-06-18T17:29:53.288Z,22.25
2023-06-18T17:31:55.509Z,22.39
2023-06-18T17:33:58.164Z,22.36
2023-06-18T17:36:03.612Z,22.45
2023-06-18T17:38:07.918Z,22.46
2023-06-18T17:40:11.290Z,22.40
2023-06-18T17:42:13.958Z,22.45
2023-06-18T17:44:16.927Z,21.98
2023-06-18T17:46:19.455Z,21.99
2023-06-18T17:48:21.569Z,21.91
2023-06-18T17:50:23.860Z,22.05
2023-06-18T17:52:26.107Z,21.98
2023-06-18T17:54:28.579Z,22.09
2023-06-18T17:56:33.535Z,22.09
2023-06-18T17:58:36.632Z,22.06
2023-06-18T18:00:38.940Z,22.22
2023-06-18T18:02:41.523Z,22.08
2023-06-18T18:04:44.194Z,22.11
2023-06-18T18:06:46.967Z,22.18
2023-06-18T18:08:49.989Z,22.14
2023-06-18T18:10:52.099Z,22.32
2023-06-18T18:12:54.439Z,22.32
2023-06-18T18:14:57.622Z,22.35
2023-06-18T18:17:01.421Z,22.40
2023-06-18T18:19:03.782Z,22.43
2023-06-18T18:21:05.980Z,22.26
2023-06-18T18:23:08.145Z,22.17
2023-06-18T18:25:12.221Z,22.40
2023-06-18T18:27:14.578Z,22.19
2023-06-18T18:29:17.384Z,22.13
2023-06-18T18:31:19.737Z,22.04
2023-06-18T18:33:21.919Z,21.80
2023-06-18T18:35:24.392Z,21.93
2023-06-18T18:37:28.315Z,22.04
2023-06-18T18:39:30.538Z,22.05
2023-06-18T18:41:32.795Z,21.95
2023-06-18T18:43:35.367Z,21.94
2023-06-18T18:45:37.593Z,22.11
2023-06-18T18:47:39.876Z,22.15
2023-06-18T18:49:42.221Z,21.98
2023-06-18T18:51:44.436Z,22.00
2023-06-18T18:53:51.454Z,21.88
2023-06-18T18:55:55.357Z,21.94
2023-06-18T18:57:57.541Z,21.99
2023-06-18T18:59:59.771Z,21.96
2023-06-18T19:02:02.084Z,21.92
2023-06-18T19:04:04.449Z,21.72
2023-06-18T19:06:06.641Z,21.96
2023-06-18T19:08:08.882Z,21.74
2023-06-18T19:10:12.306Z,21.95
2023-06-18T19:12:14.596Z,21.84
2023-06-18T19:14:16.762Z,21.84
2023-06-18T19:16:19.162Z,21.87
2023-06-18T19:18:21.755Z,21.95
2023-06-18T19:20:24.242Z,21.90
2023-06-18T19:22:33.239Z,21.77
2023-06-18T19:24:35.859Z,21.67
2023-06-18T19:26:38.378Z,21.67
2023-06-18T19:28:40.560Z,21.39
2023-06-18T19:30:42.986Z,21.41
2023-06-18T19:32:45.392Z,21.63
2023-06-18T19:34:48.605Z,21.52
2023-06-18T19:36:51.358Z,21.36
2023-06-18T19:38:53.656Z,21.41
2023-06-18T19:40:56.003Z,21.48
2023-06-18T19:42:58.298Z,21.43
2023-06-18T19:45:00.625Z,21.42
2023-06-18T19:47:03.132Z,21.63
2023-06-18T19:49:05.268Z,21.70
2023-06-18T19:51:07.419Z,21.63
2023-06-18T19:53:09.543Z,21.46
2023-06-18T19:55:11.795Z,21.40
2023-06-18T19:57:13.975Z,21.31
2023-06-18T19:59:16.317Z,21.31
2023-06-18T20:01:18.672Z,21.33
2023-06-18T20:03:22.716Z,21.49
2023-06-18T20:05:24.990Z,21.47
2023-06-18T20:07:27.273Z,21.30
2023-06-18T20:09:34.627Z,21.13
2023-06-18T20:11:36.944Z,21.22
2023-06-18T20:13:39.114Z,21.19
2023-06-18T20:15:45.985Z,21.14
2023-06-18T20:17:49.623Z,21.29
2023-06-18T20:19:52.620Z,21.18
2023-06-18T20:21:54.770Z,21.32
2023-06-18T20:23:56.997Z,21.47
2023-06-18T20:25:59.233Z,21.40
2023-06-18T20:28:01.652Z,21.46
2023-06-18T20:30:04.196Z,21.37
2023-06-18T20:32:07.839Z,21.35
2023-06-18T20:34:10.169Z,21.31
2023-06-18T20:36:12.329Z,21.46
2023-06-18T20:38:14.725Z,21.43
2023-06-18T20:40:17.095Z,21.02
2023-06-18T20:42:19.558Z,21.23
2023-06-18T20:44:21.885Z,21.20
2023-06-18T20:46:24.810Z,20.95
2023-06-18T20:48:28.212Z,20.95
2023-06-18T20:50:30.969Z,21.21
2023-06-18T20:52:33.397Z,21.13
2023-06-18T20:54:35.504Z,20.97
2023-06-18T20:56:37.697Z,20.86
2023-06-18T20:58:40.662Z,20.93
2023-06-18T21:00:43.128Z,21.01
2023-06-18T21:02:45.309Z,20.98
2023-06-18T21:04:47.586Z,21.08
2023-06-18T21:06:50.026Z,20.89
2023-06-18T21:08:52.624Z,20.86
2023-06-18T21:10:54.944Z,20.69
2023-06-18T21:12:57.209Z,20.75
2023-06-18T21:14:59.775Z,20.60
2023-06-18T21:17:03.599Z,20.79
2023-06-18T21:19:06.023Z,20.72
2023-06-18T21:21:08.365Z,20.76
2023-06-18T21:23:10.558Z,20.81
2023-06-18T21:25:13.497Z,20.61
2023-06-18T21:27:15.771Z,20.67
2023-06-18T21:29:18.092Z,20.74
2023-06-18T21:31:20.424Z,20.69
2023-06-18T21:33:22.684Z,20.61
2023-06-18T21:35:25.214Z,20.48
2023-06-18T21:37:27.553Z,20.41
2023-06-18T21:39:29.968Z,20.41
2023-06-18T21:41:33.081Z,20.34
2023-06-18T21:43:35.180Z,20.42
2023-06-18T21:45:37.755Z,20.43
2023-06-18T21:47:41.369Z,20.24
2023-06-18T21:49:43.799Z,20.16
2023-06-18T21:51:46.590Z,20.28
2023-06-18T21:53:50.164Z,20.31
2023-06-18T21:55:53.490Z,20.24
2023-06-18T21:57:55.775Z,20.07
2023-06-18T21:59:58.656Z,19.99
2023-06-18T22:02:00.848Z,20.19
2023-06-18T22:04:03.231Z,20.18
2023-06-18T22:06:07.931Z,20.01
2023-06-18T22:08:23.800Z,19.99
2023-06-18T22:10:27.413Z,19.84
2023-06-18T22:12:29.725Z,19.95
2023-06-18T22:14:32.096Z,20.00
2023-06-18T22:16:34.611Z,19.84
2023-06-18T22:18:37.862Z,19.97
2023-06-18T22:20:40.040Z,19.84
2023-06-18T22:22:43.649Z,19.92
2023-06-18T22:24:47.432Z,19.89
2023-06-18T22:26:59.536Z,19.65
2023-06-18T22:29:01.852Z,19.69
2023-06-18T22:31:04.063Z,19.83
2023-06-18T22:33:06.343Z,19.80
2023-06-18T22:35:09.019Z,19.85
2023-06-18T22:37:12.052Z,19.78
2023-06-18T22:39:15.277Z,19.71
2023-06-18T22:41:17.498Z,19.71
2023-06-18T22:43:19.762Z,19.61
2023-06-18T22:45:22.946Z,19.66
2023-06-18T22:47:25.229Z,19.74
2023-06-18T22:49:27.575Z,19.85
2023-06-18T22:51:29.809Z,19.71
2023-06-18T22:53:32.687Z,19.63
2023-06-18T22:55:35.048Z,19.60
2023-06-18T22:57:37.306Z,19.51
2023-06-18T22:59:39.382Z,19.51
2023-06-18T23:01:41.654Z,19.70
2023-06-18T23:03:44.180Z,19.65
2023-06-18T23:05:46.313Z,19.57
2023-06-18T23:07:48.549Z,19.75
2023-06-18T23:09:50.673Z,19.79
2023-06-18T23:11:53.671Z,19.88
2023-06-18T23:13:55.986Z,19.74
2023-06-18T23:15:58.139Z,19.76
2023-06-18T23:18:02.755Z,19.94
2023-06-18T23:20:05.915Z,19.70
2023-06-18T23:22:10.153Z,19.60
2023-06-18T23:24:12.827Z,19.75
2023-06-18T23:26:15.516Z,19.55
2023-06-18T23:28:17.796Z,19.65
2023-06-18T23:30:20.641Z,19.50
2023-06-18T23:32:22.833Z,19.60
2023-06-18T23:34:27.636Z,19.66
2023-06-18T23:36:30.067Z,19.67
2023-06-18T23:38:32.214Z,19.63
2023-06-18T23:40:34.494Z,19.55
2023-06-18T23:42:37.716Z,19.61
2023-06-18T23:44:39.902Z,19.40
2023-06-18T23:46:42.023Z,19.30
2023-06-18T23:48:44.198Z,19.38
2023-06-18T23:50:46.292Z,18.91
2023-06-18T23:52:48.422Z,19.09
2023-06-18T23:54:50.615Z,19.32
2023-06-18T23:56:53.333Z,19.26
2023-06-18T23:58:55.544Z,19.36
